VCP412 KSEA-KDCA
Flight info
| Callsign | VCP412 |
|---|---|
| Flight time | N/A |
| Altitude | 35000 |
| Route | MONTN2 PEAKK NORMY J90 MLS J204 DPR J16 MCW DBQ JOT J30 BUCKO FRDMM6 |
| Aircraft | B738/M-SDE2E3FGHIRWXY/LB1 |
Departure
| Time | 2026-05-05 07:16 |
|---|---|
| Airport | Seattle–Tacoma International Airport (KSEA) |
Arrival
| Time | N/A |
|---|---|
| Airport | Ronald Reagan Washington National Airport (KDCA) |
| Time | Latitude | Longitude | Altitude | Speed | Heading |
|---|---|---|---|---|---|
| 2026-05-05 06:59 | 47.44976 | -122.30383 | 408 ft | 0 kts | 158° |
| 2026-05-05 07:07 | 47.44987 | -122.30389 | 408 ft | 2 kts | 158° |
| 2026-05-05 07:07 | 47.45001 | -122.30397 | 409 ft | 2 kts | 158° |
| 2026-05-05 07:07 | 47.45015 | -122.30402 | 410 ft | 2 kts | 193° |
| 2026-05-05 07:07 | 47.45028 | -122.30392 | 410 ft | 2 kts | 234° |
| 2026-05-05 07:08 | 47.45033 | -122.30376 | 411 ft | 0 kts | 266° |
| 2026-05-05 07:08 | 47.45032 | -122.30366 | 411 ft | 1 kts | 271° |
| 2026-05-05 07:08 | 47.45032 | -122.30364 | 411 ft | 0 kts | 271° |
| 2026-05-05 07:10 | 47.45032 | -122.30392 | 411 ft | 6 kts | 271° |
| 2026-05-05 07:11 | 47.45032 | -122.30472 | 411 ft | 7 kts | 270° |
| 2026-05-05 07:11 | 47.45034 | -122.30544 | 411 ft | 6 kts | 274° |
| 2026-05-05 07:11 | 47.45058 | -122.30607 | 412 ft | 7 kts | 330° |
| 2026-05-05 07:11 | 47.45104 | -122.30624 | 415 ft | 6 kts | 357° |
| 2026-05-05 07:12 | 47.45150 | -122.30624 | 418 ft | 7 kts | 0° |
| 2026-05-05 07:12 | 47.45219 | -122.30624 | 421 ft | 12 kts | 0° |
| 2026-05-05 07:12 | 47.45330 | -122.30623 | 426 ft | 18 kts | 0° |
| 2026-05-05 07:12 | 47.45472 | -122.30621 | 432 ft | 19 kts | 0° |
| 2026-05-05 07:13 | 47.45604 | -122.30620 | 437 ft | 19 kts | 0° |
| 2026-05-05 07:13 | 47.45752 | -122.30619 | 439 ft | 23 kts | 0° |
| 2026-05-05 07:13 | 47.45929 | -122.30617 | 441 ft | 25 kts | 1° |
| 2026-05-05 07:13 | 47.46106 | -122.30616 | 437 ft | 26 kts | 1° |
| 2026-05-05 07:14 | 47.46234 | -122.30615 | 430 ft | 10 kts | 358° |
| 2026-05-05 07:14 | 47.46272 | -122.30640 | 425 ft | 0 kts | 315° |
| 2026-05-05 07:15 | 47.46289 | -122.30688 | 421 ft | 10 kts | 281° |
| 2026-05-05 07:15 | 47.46238 | -122.30774 | 420 ft | 13 kts | 190° |
| 2026-05-05 07:15 | 47.46050 | -122.30778 | 431 ft | 59 kts | 180° |
| 2026-05-05 07:15 | 47.45383 | -122.30786 | 425 ft | 132 kts | 180° |
| 2026-05-05 07:16 | 47.44245 | -122.30791 | 534 ft | 182 kts | 180° |
| 2026-05-05 07:16 | 47.43047 | -122.30793 | 1577 ft | 170 kts | 186° |
| 2026-05-05 07:16 | 47.41871 | -122.31242 | 2148 ft | 182 kts | 196° |
| 2026-05-05 07:16 | 47.40588 | -122.31551 | 2596 ft | 194 kts | 180° |
| 2026-05-05 07:17 | 47.39201 | -122.31445 | 2975 ft | 209 kts | 174° |
| 2026-05-05 07:17 | 47.37698 | -122.31242 | 3358 ft | 225 kts | 174° |
| 2026-05-05 07:17 | 47.36059 | -122.31047 | 3738 ft | 244 kts | 175° |
| 2026-05-05 07:17 | 47.34349 | -122.30837 | 4370 ft | 250 kts | 170° |
| 2026-05-05 07:18 | 47.32733 | -122.29904 | 4990 ft | 255 kts | 144° |
| 2026-05-05 07:18 | 47.31522 | -122.28034 | 5573 ft | 260 kts | 115° |
| 2026-05-05 07:18 | 47.31065 | -122.25459 | 6042 ft | 267 kts | 85° |
| 2026-05-05 07:18 | 47.31418 | -122.22797 | 6762 ft | 266 kts | 70° |
| 2026-05-05 07:19 | 47.32022 | -122.20194 | 7453 ft | 271 kts | 68° |
| 2026-05-05 07:19 | 47.32650 | -122.17562 | 8182 ft | 275 kts | 69° |
| 2026-05-05 07:19 | 47.33269 | -122.14916 | 8948 ft | 276 kts | 69° |
| 2026-05-05 07:19 | 47.33884 | -122.12245 | 9601 ft | 281 kts | 70° |
| 2026-05-05 07:20 | 47.34503 | -122.09530 | 10282 ft | 284 kts | 70° |
| 2026-05-05 07:20 | 47.35152 | -122.06686 | 10655 ft | 300 kts | 69° |
| 2026-05-05 07:20 | 47.35822 | -122.03746 | 11022 ft | 313 kts | 69° |
| 2026-05-05 07:20 | 47.36531 | -122.00634 | 11404 ft | 328 kts | 69° |
| 2026-05-05 07:21 | 47.37278 | -121.97350 | 11703 ft | 344 kts | 69° |
| 2026-05-05 07:21 | 47.38052 | -121.93945 | 11994 ft | 358 kts | 69° |
| 2026-05-05 07:21 | 47.38844 | -121.90451 | 12275 ft | 371 kts | 70° |
| 2026-05-05 07:21 | 47.39665 | -121.86815 | 12807 ft | 377 kts | 69° |
| 2026-05-05 07:22 | 47.40493 | -121.83135 | 13444 ft | 380 kts | 69° |
| 2026-05-05 07:22 | 47.41321 | -121.79453 | 14087 ft | 382 kts | 69° |
| 2026-05-05 07:22 | 47.42098 | -121.75644 | 14665 ft | 388 kts | 73° |
| 2026-05-05 07:22 | 47.42626 | -121.71751 | 15288 ft | 392 kts | 79° |
| 2026-05-05 07:23 | 47.42882 | -121.67761 | 15904 ft | 396 kts | 83° |
| 2026-05-05 07:23 | 47.42947 | -121.63653 | 16441 ft | 402 kts | 86° |
| 2026-05-05 07:23 | 47.42907 | -121.59549 | 17038 ft | 405 kts | 88° |
| 2026-05-05 07:23 | 47.42827 | -121.55396 | 17555 ft | 409 kts | 88° |
| 2026-05-05 07:24 | 47.42737 | -121.51218 | 18093 ft | 412 kts | 88° |
| 2026-05-05 07:24 | 47.42648 | -121.46938 | 18610 ft | 416 kts | 87° |
| 2026-05-05 07:24 | 47.42567 | -121.42699 | 19165 ft | 418 kts | 87° |
| 2026-05-05 07:24 | 47.42492 | -121.38413 | 19694 ft | 421 kts | 86° |
| 2026-05-05 07:25 | 47.42421 | -121.34060 | 20237 ft | 424 kts | 87° |
| 2026-05-05 07:25 | 47.42352 | -121.29741 | 20671 ft | 428 kts | 87° |
| 2026-05-05 07:25 | 47.42280 | -121.25317 | 21212 ft | 430 kts | 87° |
| 2026-05-05 07:25 | 47.42207 | -121.20916 | 21713 ft | 433 kts | 86° |
| 2026-05-05 07:26 | 47.42132 | -121.16510 | 22197 ft | 435 kts | 86° |
| 2026-05-05 07:26 | 47.42055 | -121.12066 | 22665 ft | 438 kts | 86° |
| 2026-05-05 07:26 | 47.41975 | -121.07563 | 23099 ft | 441 kts | 86° |
| 2026-05-05 07:26 | 47.41893 | -121.03011 | 23563 ft | 443 kts | 86° |
| 2026-05-05 07:27 | 47.41810 | -120.98483 | 24035 ft | 446 kts | 86° |
| 2026-05-05 07:27 | 47.41723 | -120.93935 | 24453 ft | 449 kts | 86° |
| 2026-05-05 07:27 | 47.41635 | -120.89342 | 24912 ft | 451 kts | 86° |
| 2026-05-05 07:27 | 47.41617 | -120.88445 | 24994 ft | 452 kts | 86° |